Terminal Aerodrome Forecast
Issued by NWS

Home | Current Version | Previous Version | Text Only | Print | Product List | Glossary Off
Versions: 1 2 3 4 5 6 7 8 9 10 11 12 13 14 15 16 17 18 19 20 21 22 23 24 25 26 27 28 29 30 31

000
FTUS41 KCLE 211000 AAA
TAFFDY
TAF AMD
KFDY 211011Z 2110/2206 VRB03KT P6SM VCSH SCT040 OVC100
      TEMPO 2113/2116 3SM -TSRA BR BKN025CB OVC080
     FM211600 23006KT P6SM SCT040 BKN120
     FM220400 23005KT 5SM BR VCTS BKN035CB OVC080=

USA.gov is the U.S. government's official web portal to all federal, state and local government web resources and services.